sensor_id;sensor_type;location;lat;lon;timestamp;P1;durP1;ratioP1;P2;durP2;ratioP2
35592;SDS011;64447;52.140;5.602;2023-07-02T17:28:09;8.82;;;4.57;;
35592;SDS011;64447;52.140;5.602;2023-07-02T17:33:57;8.98;;;5.20;;
35592;SDS011;64447;52.140;5.602;2023-07-02T17:36:22;8.15;;;4.78;;
35592;SDS011;64447;52.140;5.602;2023-07-02T17:38:48;13.68;;;5.72;;
35592;SDS011;64447;52.140;5.602;2023-07-02T17:41:13;10.80;;;4.97;;
35592;SDS011;64447;52.140;5.602;2023-07-02T17:43:39;9.25;;;5.38;;
35592;SDS011;64447;52.140;5.602;2023-07-02T17:49:27;10.00;;;4.97;;
35592;SDS011;64447;52.140;5.602;2023-07-02T17:51:56;10.52;;;5.35;;
35592;SDS011;64447;52.140;5.602;2023-07-02T17:54:25;10.48;;;5.60;;
35592;SDS011;64447;52.140;5.602;2023-07-02T17:56:52;10.48;;;5.53;;
35592;SDS011;64447;52.140;5.602;2023-07-02T17:59:19;11.10;;;5.55;;
35592;SDS011;64447;52.140;5.602;2023-07-02T18:01:48;11.10;;;6.10;;
35592;SDS011;64447;52.140;5.602;2023-07-02T18:04:19;13.27;;;5.20;;
35592;SDS011;64447;52.140;5.602;2023-07-02T18:06:47;11.20;;;5.47;;
35592;SDS011;64447;52.140;5.602;2023-07-02T18:09:16;11.05;;;5.45;;
35592;SDS011;64447;52.140;5.602;2023-07-02T18:11:42;12.98;;;5.40;;
35592;SDS011;64447;52.140;5.602;2023-07-02T18:14:08;10.85;;;5.35;;
35592;SDS011;64447;52.140;5.602;2023-07-02T18:16:34;10.85;;;5.45;;
35592;SDS011;64447;52.140;5.602;2023-07-02T18:19:00;9.95;;;5.18;;
35592;SDS011;64447;52.140;5.602;2023-07-02T18:21:26;11.05;;;5.10;;
35592;SDS011;64447;52.140;5.602;2023-07-02T18:23:51;10.68;;;5.25;;
35592;SDS011;64447;52.140;5.602;2023-07-02T18:26:17;11.82;;;5.28;;
35592;SDS011;64447;52.140;5.602;2023-07-02T18:28:43;12.63;;;5.22;;
35592;SDS011;64447;52.140;5.602;2023-07-02T18:34:31;9.68;;;5.68;;
35592;SDS011;64447;52.140;5.602;2023-07-02T18:36:59;8.90;;;5.35;;
35592;SDS011;64447;52.140;5.602;2023-07-02T18:39:29;12.32;;;5.60;;
35592;SDS011;64447;52.140;5.602;2023-07-02T18:42:03;11.00;;;5.60;;
35592;SDS011;64447;52.140;5.602;2023-07-02T18:44:30;10.00;;;5.28;;
35592;SDS011;64447;52.140;5.602;2023-07-02T18:47:07;10.02;;;5.35;;
35592;SDS011;64447;52.140;5.602;2023-07-02T18:49:39;11.07;;;5.40;;
35592;SDS011;64447;52.140;5.602;2023-07-02T18:52:06;11.10;;;5.07;;
35592;SDS011;64447;52.140;5.602;2023-07-02T18:54:37;10.27;;;5.35;;
35592;SDS011;64447;52.140;5.602;2023-07-02T18:57:04;10.95;;;5.13;;
35592;SDS011;64447;52.140;5.602;2023-07-02T18:59:31;13.27;;;5.53;;
35592;SDS011;64447;52.140;5.602;2023-07-02T19:01:58;13.57;;;5.13;;
35592;SDS011;64447;52.140;5.602;2023-07-02T19:04:24;10.98;;;5.18;;
35592;SDS011;64447;52.140;5.602;2023-07-02T19:06:50;11.07;;;5.25;;
35592;SDS011;64447;52.140;5.602;2023-07-02T19:09:15;12.32;;;5.72;;
35592;SDS011;64447;52.140;5.602;2023-07-02T19:11:41;15.65;;;5.95;;
35592;SDS011;64447;52.140;5.602;2023-07-02T19:14:07;12.98;;;5.38;;
35592;SDS011;64447;52.140;5.602;2023-07-02T19:19:55;11.43;;;5.70;;
35592;SDS011;64447;52.140;5.602;2023-07-02T19:22:20;17.35;;;6.30;;
35592;SDS011;64447;52.140;5.602;2023-07-02T19:24:46;13.25;;;5.80;;
35592;SDS011;64447;52.140;5.602;2023-07-02T19:27:12;16.70;;;5.35;;
35592;SDS011;64447;52.140;5.602;2023-07-02T19:29:39;11.50;;;5.50;;
35592;SDS011;64447;52.140;5.602;2023-07-02T19:32:06;12.40;;;5.20;;
35592;SDS011;64447;52.140;5.602;2023-07-02T19:34:32;15.05;;;5.43;;
35592;SDS011;64447;52.140;5.602;2023-07-02T19:36:58;12.13;;;5.53;;
35592;SDS011;64447;52.140;5.602;2023-07-02T19:39:24;11.65;;;5.47;;
35592;SDS011;64447;52.140;5.602;2023-07-02T19:41:49;11.95;;;5.53;;
35592;SDS011;64447;52.140;5.602;2023-07-02T19:44:16;13.10;;;5.38;;
35592;SDS011;64447;52.140;5.602;2023-07-02T19:50:08;13.45;;;5.93;;
35592;SDS011;64447;52.140;5.602;2023-07-02T19:52:35;12.68;;;5.60;;
35592;SDS011;64447;52.140;5.602;2023-07-02T19:55:04;13.00;;;5.32;;
35592;SDS011;64447;52.140;5.602;2023-07-02T19:57:31;12.07;;;5.25;;
35592;SDS011;64447;52.140;5.602;2023-07-02T19:59:58;10.75;;;4.82;;
35592;SDS011;64447;52.140;5.602;2023-07-02T20:02:25;13.05;;;5.78;;
35592;SDS011;64447;52.140;5.602;2023-07-02T20:04:59;17.35;;;5.85;;
35592;SDS011;64447;52.140;5.602;2023-07-02T20:07:29;11.40;;;5.05;;
35592;SDS011;64447;52.140;5.602;2023-07-02T20:09:55;13.75;;;5.18;;
35592;SDS011;64447;52.140;5.602;2023-07-02T20:12:21;12.80;;;5.38;;
35592;SDS011;64447;52.140;5.602;2023-07-02T20:14:53;11.13;;;5.63;;
35592;SDS011;64447;52.140;5.602;2023-07-02T20:17:20;13.75;;;6.07;;
35592;SDS011;64447;52.140;5.602;2023-07-02T20:19:45;11.43;;;4.93;;
35592;SDS011;64447;52.140;5.602;2023-07-02T20:22:15;17.63;;;6.43;;
35592;SDS011;64447;52.140;5.602;2023-07-02T20:24:42;13.43;;;5.10;;
35592;SDS011;64447;52.140;5.602;2023-07-02T20:27:08;12.23;;;5.57;;
35592;SDS011;64447;52.140;5.602;2023-07-02T20:29:34;15.65;;;5.30;;
35592;SDS011;64447;52.140;5.602;2023-07-02T20:32:00;13.38;;;5.50;;
35592;SDS011;64447;52.140;5.602;2023-07-02T20:34:25;14.68;;;5.30;;
35592;SDS011;64447;52.140;5.602;2023-07-02T20:36:53;16.20;;;6.00;;
35592;SDS011;64447;52.140;5.602;2023-07-02T20:39:21;14.15;;;5.15;;
35592;SDS011;64447;52.140;5.602;2023-07-02T20:41:48;15.10;;;5.35;;
35592;SDS011;64447;52.140;5.602;2023-07-02T20:44:14;13.18;;;5.15;;
35592;SDS011;64447;52.140;5.602;2023-07-02T20:46:41;12.57;;;5.15;;
35592;SDS011;64447;52.140;5.602;2023-07-02T20:49:18;12.35;;;5.10;;
35592;SDS011;64447;52.140;5.602;2023-07-02T20:51:46;19.23;;;6.53;;
35592;SDS011;64447;52.140;5.602;2023-07-02T20:54:14;11.27;;;5.50;;
35592;SDS011;64447;52.140;5.602;2023-07-02T20:56:41;13.95;;;5.43;;
35592;SDS011;64447;52.140;5.602;2023-07-02T20:59:07;13.13;;;5.93;;
35592;SDS011;64447;52.140;5.602;2023-07-02T21:01:37;19.33;;;5.70;;
35592;SDS011;64447;52.140;5.602;2023-07-02T21:04:02;11.05;;;4.82;;
35592;SDS011;64447;52.140;5.602;2023-07-02T21:06:35;14.02;;;5.13;;
35592;SDS011;64447;52.140;5.602;2023-07-02T21:09:03;14.93;;;5.63;;
35592;SDS011;64447;52.140;5.602;2023-07-02T21:11:30;13.45;;;5.45;;
35592;SDS011;64447;52.140;5.602;2023-07-02T21:13:57;11.13;;;5.43;;
35592;SDS011;64447;52.140;5.602;2023-07-02T21:16:23;11.70;;;5.30;;
35592;SDS011;64447;52.140;5.602;2023-07-02T21:18:49;10.95;;;5.07;;
35592;SDS011;64447;52.140;5.602;2023-07-02T21:21:15;12.52;;;4.97;;
35592;SDS011;64447;52.140;5.602;2023-07-02T21:23:41;13.07;;;5.65;;
35592;SDS011;64447;52.140;5.602;2023-07-02T21:26:06;13.52;;;5.32;;
35592;SDS011;64447;52.140;5.602;2023-07-02T21:28:33;16.70;;;5.55;;
35592;SDS011;64447;52.140;5.602;2023-07-02T21:30:58;13.48;;;5.22;;
35592;SDS011;64447;52.140;5.602;2023-07-02T21:33:25;15.43;;;5.32;;
35592;SDS011;64447;52.140;5.602;2023-07-02T21:35:51;12.88;;;4.78;;
35592;SDS011;64447;52.140;5.602;2023-07-02T21:38:17;20.17;;;5.68;;
35592;SDS011;64447;52.140;5.602;2023-07-02T21:40:43;13.48;;;5.45;;
35592;SDS011;64447;52.140;5.602;2023-07-02T21:43:09;14.43;;;5.20;;
35592;SDS011;64447;52.140;5.602;2023-07-02T21:45:35;15.02;;;5.53;;
35592;SDS011;64447;52.140;5.602;2023-07-02T21:48:01;12.73;;;5.20;;
35592;SDS011;64447;52.140;5.602;2023-07-02T21:50:27;14.15;;;5.00;;
35592;SDS011;64447;52.140;5.602;2023-07-02T21:52:53;17.02;;;6.00;;
35592;SDS011;64447;52.140;5.602;2023-07-02T21:55:19;14.50;;;5.32;;
35592;SDS011;64447;52.140;5.602;2023-07-02T21:57:45;15.30;;;5.30;;
35592;SDS011;64447;52.140;5.602;2023-07-02T22:00:10;15.07;;;5.65;;
35592;SDS011;64447;52.140;5.602;2023-07-02T22:02:37;13.07;;;5.07;;
35592;SDS011;64447;52.140;5.602;2023-07-02T22:05:03;16.55;;;5.45;;
35592;SDS011;64447;52.140;5.602;2023-07-02T22:07:29;13.00;;;5.28;;
35592;SDS011;64447;52.140;5.602;2023-07-02T22:09:55;16.45;;;5.35;;
35592;SDS011;64447;52.140;5.602;2023-07-02T22:12:21;19.23;;;5.35;;
35592;SDS011;64447;52.140;5.602;2023-07-02T22:14:48;16.65;;;6.25;;
35592;SDS011;64447;52.140;5.602;2023-07-02T22:17:14;19.00;;;5.60;;
35592;SDS011;64447;52.140;5.602;2023-07-02T22:19:40;18.85;;;5.95;;
35592;SDS011;64447;52.140;5.602;2023-07-02T22:22:07;20.25;;;6.15;;
35592;SDS011;64447;52.140;5.602;2023-07-02T22:24:34;18.90;;;5.82;;
35592;SDS011;64447;52.140;5.602;2023-07-02T22:27:00;14.63;;;5.45;;
35592;SDS011;64447;52.140;5.602;2023-07-02T22:29:27;14.25;;;5.85;;
35592;SDS011;64447;52.140;5.602;2023-07-02T22:31:53;21.13;;;5.57;;
35592;SDS011;64447;52.140;5.602;2023-07-02T22:34:19;17.05;;;5.78;;
35592;SDS011;64447;52.140;5.602;2023-07-02T22:36:44;15.63;;;5.45;;
35592;SDS011;64447;52.140;5.602;2023-07-02T22:39:10;21.50;;;5.47;;
35592;SDS011;64447;52.140;5.602;2023-07-02T22:41:36;18.13;;;5.55;;
35592;SDS011;64447;52.140;5.602;2023-07-02T22:44:01;19.63;;;5.90;;
35592;SDS011;64447;52.140;5.602;2023-07-02T22:46:27;24.48;;;6.60;;
35592;SDS011;64447;52.140;5.602;2023-07-02T22:52:15;19.88;;;6.00;;
35592;SDS011;64447;52.140;5.602;2023-07-02T22:54:43;18.02;;;5.57;;
35592;SDS011;64447;52.140;5.602;2023-07-02T22:57:09;17.83;;;6.00;;
35592;SDS011;64447;52.140;5.602;2023-07-02T22:59:35;21.50;;;6.32;;
35592;SDS011;64447;52.140;5.602;2023-07-02T23:02:00;18.98;;;5.60;;
35592;SDS011;64447;52.140;5.602;2023-07-02T23:04:26;19.08;;;5.75;;
35592;SDS011;64447;52.140;5.602;2023-07-02T23:06:52;14.30;;;5.45;;
35592;SDS011;64447;52.140;5.602;2023-07-02T23:09:19;14.30;;;5.43;;
35592;SDS011;64447;52.140;5.602;2023-07-02T23:11:45;19.67;;;5.85;;
35592;SDS011;64447;52.140;5.602;2023-07-02T23:14:11;22.30;;;5.90;;
35592;SDS011;64447;52.140;5.602;2023-07-02T23:16:36;15.10;;;5.25;;
35592;SDS011;64447;52.140;5.602;2023-07-02T23:19:02;17.92;;;5.50;;
35592;SDS011;64447;52.140;5.602;2023-07-02T23:21:28;18.92;;;6.00;;
35592;SDS011;64447;52.140;5.602;2023-07-02T23:23:55;18.30;;;4.80;;
35592;SDS011;64447;52.140;5.602;2023-07-02T23:26:23;20.02;;;5.10;;
35592;SDS011;64447;52.140;5.602;2023-07-02T23:28:51;21.92;;;5.80;;
35592;SDS011;64447;52.140;5.602;2023-07-02T23:31:21;17.52;;;5.90;;
35592;SDS011;64447;52.140;5.602;2023-07-02T23:37:14;21.70;;;5.03;;
35592;SDS011;64447;52.140;5.602;2023-07-02T23:39:39;17.83;;;5.20;;
35592;SDS011;64447;52.140;5.602;2023-07-02T23:42:05;18.30;;;5.38;;
35592;SDS011;64447;52.140;5.602;2023-07-02T23:44:31;22.15;;;5.85;;
35592;SDS011;64447;52.140;5.602;2023-07-02T23:46:57;12.02;;;5.07;;
35592;SDS011;64447;52.140;5.602;2023-07-02T23:49:23;19.15;;;5.88;;
35592;SDS011;64447;52.140;5.602;2023-07-02T23:51:49;15.50;;;5.97;;
35592;SDS011;64447;52.140;5.602;2023-07-02T23:54:14;17.63;;;4.80;;
35592;SDS011;64447;52.140;5.602;2023-07-02T23:56:40;18.52;;;5.63;;
35592;SDS011;64447;52.140;5.602;2023-07-02T23:59:05;16.38;;;5.25;;
